createdAt,value
2019-02-28T00:00:27.104Z,9.50
2019-02-28T00:01:27.106Z,9.90
2019-02-28T00:02:27.108Z,8.80
2019-02-28T00:03:27.326Z,9.10
2019-02-28T00:04:31.892Z,8.50
2019-02-28T00:05:28.052Z,8.30
2019-02-28T00:06:27.040Z,8.50
2019-02-28T00:07:27.030Z,8.70
2019-02-28T00:08:27.037Z,8.60
2019-02-28T00:09:27.010Z,8.90
2019-02-28T00:10:28.159Z,9.10
2019-02-28T00:11:26.989Z,8.40
2019-02-28T00:12:26.978Z,11.00
2019-02-28T00:13:26.982Z,7.90
2019-02-28T00:14:27.667Z,10.40
2019-02-28T00:15:29.672Z,8.50
2019-02-28T00:16:26.934Z,7.60
2019-02-28T00:17:26.924Z,7.80
2019-02-28T00:18:26.928Z,8.10
2019-02-28T00:19:26.902Z,8.30
2019-02-28T00:20:29.147Z,7.80
2019-02-28T00:21:26.879Z,8.40
2019-02-28T00:22:26.873Z,7.70
2019-02-28T00:23:26.877Z,7.90
2019-02-28T00:24:27.123Z,7.50
2019-02-28T00:25:26.840Z,7.80
2019-02-28T00:26:26.833Z,6.70
2019-02-28T00:27:26.818Z,8.80
2019-02-28T00:28:26.818Z,9.70
2019-02-28T00:29:26.798Z,8.20
2019-02-28T00:30:26.794Z,8.60
2019-02-28T00:31:26.774Z,6.80
2019-02-28T00:32:26.771Z,6.40
2019-02-28T00:33:26.768Z,9.00
2019-02-28T00:34:26.739Z,7.00
2019-02-28T00:35:26.732Z,7.80
2019-02-28T00:36:26.720Z,7.30
2019-02-28T00:37:26.710Z,6.60
2019-02-28T00:38:29.459Z,6.50
2019-02-28T00:39:26.689Z,8.30
2019-02-28T00:40:26.684Z,6.90
2019-02-28T00:41:26.671Z,6.30
2019-02-28T00:42:26.655Z,6.40
2019-02-28T00:43:26.647Z,6.10
2019-02-28T00:44:30.429Z,7.20
2019-02-28T00:45:26.630Z,7.00
2019-02-28T00:46:26.617Z,6.20
2019-02-28T00:47:26.604Z,6.90
2019-02-28T00:48:26.592Z,6.00
2019-02-28T00:49:26.600Z,7.30
2019-02-28T00:50:27.637Z,6.70
2019-02-28T00:51:29.727Z,6.00
2019-02-28T00:52:26.564Z,7.00
2019-02-28T00:53:26.546Z,6.40
2019-02-28T00:54:26.552Z,7.40
2019-02-28T00:55:26.540Z,6.40
2019-02-28T00:56:26.524Z,6.10
2019-02-28T00:57:26.496Z,6.30
2019-02-28T00:58:29.009Z,7.20
2019-02-28T00:59:26.491Z,6.00
2019-02-28T01:00:26.473Z,5.70
2019-02-28T01:01:26.450Z,5.90
2019-02-28T01:02:26.444Z,6.30
2019-02-28T01:03:27.519Z,6.60
2019-02-28T01:04:29.646Z,6.30
2019-02-28T01:05:26.420Z,5.40
2019-02-28T01:06:26.406Z,7.10
2019-02-28T01:07:26.389Z,6.80
2019-02-28T01:08:26.383Z,5.90
2019-02-28T01:09:27.107Z,5.90
2019-02-28T01:10:26.363Z,5.80
2019-02-28T01:11:26.347Z,5.80
2019-02-28T01:12:26.340Z,6.30
2019-02-28T01:13:28.000Z,5.70
2019-02-28T01:14:26.339Z,5.80
2019-02-28T01:15:26.305Z,5.90
2019-02-28T01:16:26.299Z,5.40
2019-02-28T01:17:26.756Z,5.40
2019-02-28T01:18:26.280Z,5.70
2019-02-28T01:19:26.277Z,5.80
2019-02-28T01:20:26.257Z,5.70
2019-02-28T01:21:26.247Z,6.40
2019-02-28T01:22:27.082Z,6.20
2019-02-28T01:23:29.358Z,5.50
2019-02-28T01:24:26.240Z,6.60
2019-02-28T01:25:26.204Z,6.10
2019-02-28T01:26:26.191Z,5.40
2019-02-28T01:27:26.185Z,6.90
2019-02-28T01:28:27.058Z,5.90
2019-02-28T01:29:26.162Z,5.90
2019-02-28T01:30:26.165Z,6.00
2019-02-28T01:31:26.142Z,6.30
2019-02-28T01:32:26.130Z,5.80
2019-02-28T01:33:26.121Z,6.50
2019-02-28T01:34:26.106Z,7.00
2019-02-28T01:35:26.123Z,6.10
2019-02-28T01:36:26.086Z,5.80
2019-02-28T01:37:26.075Z,5.70
2019-02-28T01:38:26.066Z,5.70
2019-02-28T01:39:26.059Z,5.50
2019-02-28T01:40:26.057Z,5.80
2019-02-28T01:41:26.032Z,5.70
2019-02-28T01:42:26.023Z,6.00
2019-02-28T01:43:28.739Z,5.40
2019-02-28T01:44:26.010Z,7.40
2019-02-28T01:45:26.005Z,6.10
2019-02-28T01:46:25.977Z,6.20
2019-02-28T01:47:25.974Z,6.30
2019-02-28T01:48:25.958Z,5.80
2019-02-28T01:49:26.996Z,6.00
2019-02-28T01:50:25.948Z,6.20
2019-02-28T01:51:25.928Z,5.30
2019-02-28T01:52:25.913Z,5.90
2019-02-28T01:53:25.904Z,7.10
2019-02-28T01:54:27.755Z,5.10
2019-02-28T01:55:25.906Z,5.10
2019-02-28T01:56:25.869Z,5.10
2019-02-28T01:57:25.861Z,6.20
2019-02-28T01:58:25.851Z,6.50
2019-02-28T01:59:25.837Z,6.50
2019-02-28T02:00:25.856Z,5.50
2019-02-28T02:01:28.489Z,5.50
2019-02-28T02:02:26.801Z,4.90
2019-02-28T02:03:25.800Z,5.70
2019-02-28T02:04:25.781Z,5.10
2019-02-28T02:05:25.791Z,4.90
2019-02-28T02:06:26.592Z,6.70
2019-02-28T02:07:25.752Z,5.70
2019-02-28T02:08:25.737Z,5.60
2019-02-28T02:09:25.731Z,6.30
2019-02-28T02:10:25.743Z,5.40
2019-02-28T02:11:26.705Z,4.80
2019-02-28T02:12:25.695Z,6.10
2019-02-28T02:13:25.697Z,6.40
2019-02-28T02:14:25.671Z,4.40
2019-02-28T02:15:25.668Z,5.30
2019-02-28T02:16:27.623Z,5.00
2019-02-28T02:17:25.643Z,5.20
2019-02-28T02:18:25.635Z,5.90
2019-02-28T02:19:25.619Z,5.40
2019-02-28T02:20:26.299Z,4.60
2019-02-28T02:21:25.613Z,5.50
2019-02-28T02:22:25.587Z,4.70
2019-02-28T02:23:25.577Z,4.60
2019-02-28T02:24:27.892Z,5.20
2019-02-28T02:25:25.551Z,5.60
2019-02-28T02:26:25.559Z,5.00
2019-02-28T02:27:25.533Z,5.30
2019-02-28T02:28:27.065Z,4.70
2019-02-28T02:29:25.507Z,6.10
2019-02-28T02:30:25.509Z,6.40
2019-02-28T02:31:28.887Z,4.80
2019-02-28T02:32:25.482Z,4.50
2019-02-28T02:33:25.468Z,4.60
2019-02-28T02:34:28.181Z,6.30
2019-02-28T02:35:25.449Z,5.90
2019-02-28T02:36:25.456Z,4.90
2019-02-28T02:37:26.358Z,4.90
2019-02-28T02:38:25.422Z,5.60
2019-02-28T02:39:25.415Z,4.90
2019-02-28T02:40:25.409Z,4.80
2019-02-28T02:41:25.398Z,4.00
2019-02-28T02:42:25.380Z,5.30
2019-02-28T02:43:25.367Z,4.30
2019-02-28T02:44:30.640Z,4.60
2019-02-28T02:45:26.351Z,4.60
2019-02-28T02:46:25.347Z,5.30
2019-02-28T02:47:31.291Z,4.30
2019-02-28T02:48:26.310Z,4.20
2019-02-28T02:49:25.302Z,4.30
2019-02-28T02:50:25.291Z,4.80
2019-02-28T02:51:25.297Z,4.50
2019-02-28T02:52:29.969Z,4.40
2019-02-28T02:53:26.270Z,4.00
2019-02-28T02:54:25.247Z,4.60
2019-02-28T02:55:29.103Z,3.80
2019-02-28T02:56:25.250Z,4.00
2019-02-28T02:57:25.214Z,4.00
2019-02-28T02:58:27.834Z,3.80
2019-02-28T02:59:25.196Z,4.40
2019-02-28T03:00:25.182Z,3.90
2019-02-28T03:01:25.175Z,4.00
2019-02-28T03:02:28.855Z,3.90
2019-02-28T03:03:26.145Z,4.90
2019-02-28T03:04:25.134Z,4.20
2019-02-28T03:05:25.132Z,4.40
2019-02-28T03:06:25.131Z,4.20
2019-02-28T03:07:25.145Z,4.20
2019-02-28T03:08:25.093Z,4.80
2019-02-28T03:09:25.079Z,4.30
2019-02-28T03:10:25.068Z,4.50
2019-02-28T03:11:26.005Z,5.90
2019-02-28T03:12:25.061Z,4.20
2019-02-28T03:13:25.038Z,4.40
2019-02-28T03:14:25.026Z,4.50
2019-02-28T03:15:27.109Z,4.70
2019-02-28T03:16:24.998Z,4.70
2019-02-28T03:17:24.999Z,4.40
2019-02-28T03:18:24.982Z,5.00
2019-02-28T03:19:25.015Z,5.70
2019-02-28T03:20:24.958Z,4.70
2019-02-28T03:21:24.950Z,5.00
2019-02-28T03:22:29.879Z,4.70
2019-02-28T03:23:25.928Z,6.00
2019-02-28T03:24:24.925Z,5.40
2019-02-28T03:25:28.250Z,5.60
2019-02-28T03:26:24.896Z,5.20
2019-02-28T03:27:24.895Z,6.00
2019-02-28T03:28:31.433Z,4.30
2019-02-28T03:29:25.860Z,4.50
2019-02-28T03:30:31.100Z,4.80
2019-02-28T03:31:25.843Z,4.60
2019-02-28T03:32:24.853Z,4.60
2019-02-28T03:33:28.584Z,4.50
2019-02-28T03:34:24.833Z,4.40
2019-02-28T03:35:24.799Z,4.20
2019-02-28T03:36:24.784Z,4.40
2019-02-28T03:37:24.790Z,4.50
2019-02-28T03:38:24.772Z,4.60
2019-02-28T03:39:25.815Z,4.40
2019-02-28T03:40:24.751Z,4.40
2019-02-28T03:41:24.736Z,4.30
2019-02-28T03:42:28.566Z,5.00
2019-02-28T03:43:24.710Z,4.40
2019-02-28T03:44:24.706Z,4.80
2019-02-28T03:45:24.693Z,5.00
2019-02-28T03:46:24.676Z,3.70
2019-02-28T03:47:24.670Z,3.90
2019-02-28T03:48:24.671Z,3.80
2019-02-28T03:49:24.650Z,3.70
2019-02-28T03:50:24.634Z,4.00
2019-02-28T03:51:28.468Z,4.50
2019-02-28T03:52:24.615Z,5.10
2019-02-28T03:53:24.612Z,4.20
2019-02-28T03:54:28.804Z,5.50
2019-02-28T03:55:25.575Z,4.60
2019-02-28T03:56:24.564Z,4.00
2019-02-28T03:57:29.474Z,4.70
2019-02-28T03:58:25.556Z,4.30
2019-02-28T03:59:24.539Z,4.20
2019-02-28T04:00:32.200Z,4.60
2019-02-28T04:01:25.511Z,4.30
2019-02-28T04:02:24.501Z,3.80
2019-02-28T04:03:24.507Z,4.50
2019-02-28T04:04:24.480Z,4.10
2019-02-28T04:05:28.060Z,4.60
2019-02-28T04:06:24.459Z,4.40
2019-02-28T04:07:24.442Z,4.30
2019-02-28T04:08:29.294Z,4.20
2019-02-28T04:09:25.446Z,4.20
2019-02-28T04:10:24.416Z,4.80
2019-02-28T04:11:30.480Z,5.00
2019-02-28T04:12:25.390Z,4.30
2019-02-28T04:13:24.402Z,4.90
2019-02-28T04:14:28.313Z,5.00
2019-02-28T04:15:25.359Z,6.30
2019-02-28T04:16:24.349Z,4.80
2019-02-28T04:17:29.952Z,4.60
2019-02-28T04:18:25.345Z,5.10
2019-02-28T04:19:24.321Z,5.00
2019-02-28T04:20:24.302Z,5.40
2019-02-28T04:21:24.312Z,4.30
2019-02-28T04:22:24.280Z,4.70
2019-02-28T04:23:24.284Z,4.90
2019-02-28T04:24:24.257Z,5.10
2019-02-28T04:25:24.594Z,5.40
2019-02-28T04:26:24.238Z,6.20
2019-02-28T04:27:24.224Z,6.60
2019-02-28T04:28:24.238Z,5.90
2019-02-28T04:29:30.061Z,6.50
2019-02-28T04:30:25.208Z,5.30
2019-02-28T04:31:24.195Z,6.40
2019-02-28T04:32:27.635Z,7.00
2019-02-28T04:33:24.179Z,5.80
2019-02-28T04:34:24.152Z,6.00
2019-02-28T04:35:25.408Z,6.10
2019-02-28T04:36:24.129Z,5.80
2019-02-28T04:37:24.115Z,5.60
2019-02-28T04:38:24.127Z,5.80
2019-02-28T04:39:24.106Z,6.50
2019-02-28T04:40:26.961Z,5.70
2019-02-28T04:41:24.070Z,6.10
2019-02-28T04:42:24.062Z,5.70
2019-02-28T04:43:24.067Z,6.20
2019-02-28T04:44:24.045Z,5.30
2019-02-28T04:45:26.205Z,6.00
2019-02-28T04:46:24.022Z,6.50
2019-02-28T04:47:24.006Z,5.20
2019-02-28T04:48:24.003Z,6.50
2019-02-28T04:49:23.981Z,5.00
2019-02-28T04:50:23.973Z,6.10
2019-02-28T04:51:23.961Z,6.40
2019-02-28T04:52:23.955Z,7.40
2019-02-28T04:53:23.963Z,6.00
2019-02-28T04:54:24.570Z,6.90
2019-02-28T04:55:23.920Z,6.80
2019-02-28T04:56:23.907Z,5.50
2019-02-28T04:57:23.892Z,6.90
2019-02-28T04:58:25.324Z,6.60
2019-02-28T04:59:23.893Z,5.90
2019-02-28T05:00:23.865Z,5.40
2019-02-28T05:01:23.850Z,5.20
2019-02-28T05:02:23.838Z,5.90
2019-02-28T05:03:27.940Z,6.40
2019-02-28T05:04:24.834Z,5.60
2019-02-28T05:05:23.807Z,6.20
2019-02-28T05:06:23.805Z,7.60
2019-02-28T05:07:26.303Z,6.20
2019-02-28T05:08:24.774Z,5.60
2019-02-28T05:09:23.780Z,6.50
2019-02-28T05:10:23.761Z,6.30
2019-02-28T05:11:23.740Z,10.40
2019-02-28T05:12:23.728Z,10.10
2019-02-28T05:13:23.721Z,11.70
2019-02-28T05:14:24.429Z,10.80
2019-02-28T05:15:23.700Z,9.80
2019-02-28T05:16:23.689Z,10.50
2019-02-28T05:17:23.676Z,11.50
2019-02-28T05:18:23.665Z,11.70
2019-02-28T05:19:23.665Z,11.60
2019-02-28T05:20:23.648Z,11.90
2019-02-28T05:21:23.634Z,11.10
2019-02-28T05:22:24.446Z,13.30
2019-02-28T05:23:23.624Z,9.70
2019-02-28T05:24:23.616Z,12.20
2019-02-28T05:25:23.585Z,10.30
2019-02-28T05:26:26.262Z,10.30
2019-02-28T05:27:24.446Z,10.40
2019-02-28T05:28:23.554Z,10.90
2019-02-28T05:29:23.556Z,11.20
2019-02-28T05:30:23.538Z,11.60
2019-02-28T05:31:24.143Z,12.40
2019-02-28T05:32:23.518Z,10.90
2019-02-28T05:33:23.502Z,10.30
2019-02-28T05:34:23.507Z,9.60
2019-02-28T05:35:26.618Z,11.00
2019-02-28T05:36:23.466Z,11.10
2019-02-28T05:37:23.458Z,9.40
2019-02-28T05:38:23.455Z,9.70
2019-02-28T05:39:23.445Z,9.00
2019-02-28T05:40:23.423Z,11.60
2019-02-28T05:41:23.408Z,10.80
2019-02-28T05:42:24.099Z,12.70
2019-02-28T05:43:23.391Z,13.20
2019-02-28T05:44:23.398Z,11.60
2019-02-28T05:45:23.368Z,12.10
2019-02-28T05:46:23.652Z,10.60
2019-02-28T05:47:23.352Z,10.90
2019-02-28T05:48:23.334Z,12.40
2019-02-28T05:49:23.347Z,13.20
2019-02-28T05:50:23.311Z,13.30
2019-02-28T05:51:24.931Z,13.20
2019-02-28T05:52:23.308Z,12.40
2019-02-28T05:53:23.280Z,13.20
2019-02-28T05:54:23.274Z,16.50
2019-02-28T05:55:25.551Z,15.90
2019-02-28T05:56:23.249Z,17.00
2019-02-28T05:57:23.243Z,20.50
2019-02-28T05:58:23.226Z,19.30
2019-02-28T05:59:27.220Z,19.60
2019-02-28T06:00:23.224Z,18.00
2019-02-28T06:01:23.193Z,23.70
2019-02-28T06:02:23.572Z,18.60
2019-02-28T06:03:23.175Z,19.40
2019-02-28T06:04:23.155Z,19.60
2019-02-28T06:05:23.166Z,20.00
2019-02-28T06:06:23.133Z,27.80
2019-02-28T06:07:25.941Z,25.00
2019-02-28T06:08:24.110Z,23.60
2019-02-28T06:09:23.104Z,28.80
2019-02-28T06:10:24.609Z,32.10
2019-02-28T06:11:23.081Z,35.20
2019-02-28T06:12:23.071Z,37.20
2019-02-28T06:13:23.059Z,36.60
2019-02-28T06:14:26.484Z,33.00
2019-02-28T06:15:23.050Z,32.90
2019-02-28T06:16:23.027Z,45.00
2019-02-28T06:17:23.021Z,34.80
2019-02-28T06:18:23.028Z,31.30
2019-02-28T06:19:22.997Z,36.40
2019-02-28T06:20:23.013Z,38.80
2019-02-28T06:21:24.239Z,33.00
2019-02-28T06:22:22.962Z,31.50
2019-02-28T06:23:22.952Z,30.10
2019-02-28T06:24:22.934Z,32.40
2019-02-28T06:25:25.024Z,32.70
2019-02-28T06:26:22.934Z,35.20
2019-02-28T06:27:24.294Z,31.80
2019-02-28T06:28:22.902Z,30.20
2019-02-28T06:29:22.887Z,31.40
2019-02-28T06:30:22.879Z,32.50
2019-02-28T06:31:22.885Z,27.40
2019-02-28T06:32:23.585Z,31.30
2019-02-28T06:33:22.846Z,27.40
2019-02-28T06:34:22.834Z,33.10
2019-02-28T06:35:22.820Z,32.80
2019-02-28T06:36:25.726Z,26.80
2019-02-28T06:37:24.056Z,25.90
2019-02-28T06:38:22.788Z,28.60
2019-02-28T06:39:22.781Z,29.60
2019-02-28T06:40:22.763Z,29.60
2019-02-28T06:41:22.774Z,25.70
2019-02-28T06:42:22.744Z,32.60
2019-02-28T06:43:22.736Z,29.50
2019-02-28T06:44:24.267Z,29.90
2019-02-28T06:45:22.715Z,25.60
2019-02-28T06:46:22.721Z,27.50
2019-02-28T06:47:22.694Z,31.80
2019-02-28T06:48:25.763Z,30.60
2019-02-28T06:49:22.681Z,27.90
2019-02-28T06:50:22.658Z,26.50
2019-02-28T06:51:22.665Z,23.50
2019-02-28T06:52:25.236Z,26.00
2019-02-28T06:53:22.635Z,26.50
2019-02-28T06:54:22.622Z,25.10
2019-02-28T06:55:22.605Z,21.20
2019-02-28T06:56:23.238Z,24.90
2019-02-28T06:57:22.581Z,24.00
2019-02-28T06:58:22.577Z,26.20
2019-02-28T06:59:22.558Z,20.80
2019-02-28T07:00:22.551Z,25.10
2019-02-28T07:01:22.980Z,20.60
2019-02-28T07:02:22.526Z,24.80
2019-02-28T07:03:22.512Z,22.90
2019-02-28T07:04:22.504Z,25.50
2019-02-28T07:05:25.774Z,22.60
2019-02-28T07:06:22.481Z,20.20
2019-02-28T07:07:22.494Z,21.70
2019-02-28T07:08:24.694Z,19.40
2019-02-28T07:09:22.452Z,21.60
2019-02-28T07:10:22.444Z,24.00
2019-02-28T07:11:22.435Z,20.00
2019-02-28T07:12:22.440Z,19.30
2019-02-28T07:13:22.413Z,21.10
2019-02-28T07:14:22.394Z,21.00
2019-02-28T07:15:24.834Z,18.20
2019-02-28T07:16:22.373Z,20.90
2019-02-28T07:17:22.385Z,20.40
2019-02-28T07:18:22.353Z,20.10
2019-02-28T07:19:22.345Z,20.30
2019-02-28T07:20:22.334Z,21.20
2019-02-28T07:21:22.328Z,17.90
2019-02-28T07:22:22.326Z,19.10
2019-02-28T07:23:22.372Z,22.50
2019-02-28T07:24:22.287Z,17.20
2019-02-28T07:25:22.284Z,18.80
2019-02-28T07:26:22.269Z,18.90
2019-02-28T07:27:23.335Z,21.60
2019-02-28T07:28:22.271Z,21.60
2019-02-28T07:29:22.258Z,19.90
2019-02-28T07:30:22.230Z,20.70
2019-02-28T07:31:24.748Z,19.10
2019-02-28T07:32:22.222Z,19.30
2019-02-28T07:33:22.203Z,19.00
2019-02-28T07:34:23.994Z,19.90
2019-02-28T07:35:22.173Z,19.40
2019-02-28T07:36:22.163Z,19.00
2019-02-28T07:37:22.161Z,19.30
2019-02-28T07:38:22.137Z,19.50
2019-02-28T07:39:22.132Z,20.20
2019-02-28T07:40:22.124Z,20.10
2019-02-28T07:41:26.213Z,20.30
2019-02-28T07:42:22.112Z,20.80
2019-02-28T07:43:22.094Z,19.60
2019-02-28T07:44:22.411Z,20.40
2019-02-28T07:45:22.081Z,18.60
2019-02-28T07:46:22.054Z,18.20
2019-02-28T07:47:22.056Z,21.40
2019-02-28T07:48:26.854Z,20.00
2019-02-28T07:49:25.691Z,18.70
2019-02-28T07:50:22.007Z,20.80
2019-02-28T07:51:23.933Z,19.00
2019-02-28T07:52:22.000Z,21.20
2019-02-28T07:53:21.980Z,20.10
2019-02-28T07:54:21.963Z,21.10
2019-02-28T07:55:21.974Z,16.60
2019-02-28T07:56:23.878Z,18.60
2019-02-28T07:57:22.511Z,19.40
2019-02-28T07:58:21.924Z,19.40
2019-02-28T07:59:21.910Z,19.00
2019-02-28T08:00:21.918Z,18.60
2019-02-28T08:01:24.557Z,23.40
2019-02-28T08:02:22.920Z,18.70
2019-02-28T08:03:21.862Z,20.80
2019-02-28T08:04:21.851Z,16.80
2019-02-28T08:05:21.846Z,18.30
2019-02-28T08:06:21.837Z,16.80
2019-02-28T08:07:21.827Z,19.60
2019-02-28T08:08:23.467Z,17.20
2019-02-28T08:09:21.796Z,15.30
2019-02-28T08:10:21.798Z,16.50
2019-02-28T08:11:21.773Z,18.90
2019-02-28T08:12:21.769Z,19.10
2019-02-28T08:13:21.767Z,17.30
2019-02-28T08:14:21.746Z,17.20
2019-02-28T08:15:22.772Z,18.20
2019-02-28T08:16:21.725Z,21.70
2019-02-28T08:17:21.725Z,18.80
2019-02-28T08:18:21.716Z,17.70
2019-02-28T08:19:22.968Z,20.00
2019-02-28T08:20:21.676Z,16.80
2019-02-28T08:21:21.667Z,18.90
2019-02-28T08:22:24.250Z,17.30
2019-02-28T08:23:21.656Z,20.80
2019-02-28T08:24:21.633Z,19.70
2019-02-28T08:25:21.620Z,17.20
2019-02-28T08:26:21.611Z,20.40
2019-02-28T08:27:25.437Z,18.40
2019-02-28T08:28:21.624Z,15.60
2019-02-28T08:29:21.579Z,15.70
2019-02-28T08:30:21.567Z,21.20
2019-02-28T08:31:21.564Z,18.50
2019-02-28T08:32:21.553Z,18.80
2019-02-28T08:33:21.565Z,15.50
2019-02-28T08:34:23.984Z,19.10
2019-02-28T08:35:21.526Z,18.50
2019-02-28T08:36:21.501Z,17.20
2019-02-28T08:37:22.468Z,18.80
2019-02-28T08:38:21.506Z,19.30
2019-02-28T08:39:21.474Z,19.80
2019-02-28T08:40:21.468Z,16.80
2019-02-28T08:41:22.583Z,17.00
2019-02-28T08:42:21.447Z,17.30
2019-02-28T08:43:27.160Z,18.10
2019-02-28T08:44:23.794Z,17.20
2019-02-28T08:45:21.401Z,13.50
2019-02-28T08:46:21.394Z,18.40
2019-02-28T08:47:21.912Z,15.40
2019-02-28T08:48:21.370Z,18.40
2019-02-28T08:49:21.373Z,17.40
2019-02-28T08:50:23.414Z,16.40
2019-02-28T08:51:23.047Z,16.50
2019-02-28T08:52:21.331Z,16.40
2019-02-28T08:53:21.327Z,15.40
2019-02-28T08:54:26.129Z,15.00
2019-02-28T08:55:28.665Z,16.90
2019-02-28T08:56:22.283Z,16.10
2019-02-28T08:57:21.916Z,16.30
2019-02-28T08:58:21.267Z,19.20
2019-02-28T08:59:22.623Z,12.30
2019-02-28T09:00:21.241Z,14.70
2019-02-28T09:01:21.231Z,16.40
2019-02-28T09:02:21.223Z,16.20
2019-02-28T09:03:21.220Z,15.60
2019-02-28T09:04:21.222Z,12.70
2019-02-28T09:05:25.650Z,13.60
2019-02-28T09:06:21.175Z,18.80
2019-02-28T09:07:21.168Z,16.10
2019-02-28T09:08:22.487Z,18.30
2019-02-28T09:09:21.158Z,16.60
2019-02-28T09:10:21.133Z,14.60
2019-02-28T09:11:21.697Z,16.70
2019-02-28T09:12:21.110Z,16.10
2019-02-28T09:13:21.105Z,17.40
2019-02-28T09:14:21.108Z,12.90
2019-02-28T09:15:21.092Z,17.20
2019-02-28T09:16:21.068Z,14.30
2019-02-28T09:17:21.059Z,15.30
2019-02-28T09:18:21.051Z,16.40
2019-02-28T09:19:21.053Z,17.50
2019-02-28T09:20:21.031Z,14.60
2019-02-28T09:21:21.017Z,16.80
2019-02-28T09:22:21.005Z,14.70
2019-02-28T09:23:21.022Z,17.60
2019-02-28T09:24:21.003Z,16.00
2019-02-28T09:25:22.088Z,17.60
2019-02-28T09:26:20.967Z,16.10
2019-02-28T09:27:20.962Z,14.50
2019-02-28T09:28:20.966Z,19.30
2019-02-28T09:29:21.102Z,18.20
2019-02-28T09:30:20.929Z,13.00
2019-02-28T09:31:20.917Z,17.40
2019-02-28T09:32:20.905Z,14.00
2019-02-28T09:33:23.419Z,16.40
2019-02-28T09:34:20.893Z,15.30
2019-02-28T09:35:20.869Z,17.80
2019-02-28T09:36:21.718Z,15.40
2019-02-28T09:37:20.846Z,11.20
2019-02-28T09:38:20.837Z,18.40
2019-02-28T09:39:20.848Z,17.20
2019-02-28T09:40:20.815Z,14.20
2019-02-28T09:41:20.808Z,20.00
2019-02-28T09:42:20.797Z,15.90
2019-02-28T09:43:23.983Z,16.50
2019-02-28T09:44:20.789Z,16.80
2019-02-28T09:45:20.765Z,19.40
2019-02-28T09:46:20.757Z,18.20
2019-02-28T09:47:23.337Z,18.00
2019-02-28T09:48:21.725Z,18.00
2019-02-28T09:49:20.734Z,18.10
2019-02-28T09:50:22.427Z,18.20
2019-02-28T09:51:20.697Z,19.10
2019-02-28T09:52:20.689Z,19.10
2019-02-28T09:53:20.681Z,10.70
2019-02-28T09:54:21.475Z,14.70
2019-02-28T09:55:20.663Z,18.80
2019-02-28T09:56:20.647Z,15.50
2019-02-28T09:57:22.578Z,15.30
2019-02-28T09:58:20.632Z,14.50
2019-02-28T09:59:20.618Z,15.50
2019-02-28T10:00:20.622Z,17.90
2019-02-28T10:01:21.270Z,16.50
2019-02-28T10:02:20.589Z,17.10
2019-02-28T10:03:20.575Z,14.00
2019-02-28T10:04:20.560Z,17.30
2019-02-28T10:05:20.576Z,18.80
2019-02-28T10:06:20.567Z,13.70
2019-02-28T10:07:23.381Z,15.10
2019-02-28T10:08:21.851Z,14.90
2019-02-28T10:09:20.516Z,14.50
2019-02-28T10:10:21.862Z,15.30
2019-02-28T10:11:21.806Z,14.90
2019-02-28T10:12:20.476Z,15.90
2019-02-28T10:13:20.472Z,16.70
2019-02-28T10:14:20.460Z,16.20
2019-02-28T10:15:20.468Z,15.00
2019-02-28T10:16:20.437Z,11.70
2019-02-28T10:17:20.422Z,11.90
2019-02-28T10:18:20.421Z,14.10
2019-02-28T10:19:20.418Z,14.00
2019-02-28T10:20:26.268Z,14.60
2019-02-28T10:21:21.402Z,13.90
2019-02-28T10:22:20.377Z,14.90
2019-02-28T10:23:21.462Z,15.10
2019-02-28T10:24:20.352Z,16.70
2019-02-28T10:25:20.361Z,13.20
2019-02-28T10:26:20.346Z,12.50
2019-02-28T10:27:23.307Z,15.50
2019-02-28T10:28:21.306Z,10.70
2019-02-28T10:29:20.308Z,12.20
2019-02-28T10:30:30.791Z,12.90
2019-02-28T10:31:31.649Z,12.40
2019-02-28T10:32:21.268Z,12.40
2019-02-28T10:33:20.259Z,15.40
2019-02-28T10:34:20.247Z,13.40
2019-02-28T10:35:20.234Z,13.70
2019-02-28T10:36:20.227Z,15.00
2019-02-28T10:37:22.820Z,13.60
2019-02-28T10:38:20.204Z,13.80
2019-02-28T10:39:20.198Z,14.80
2019-02-28T10:40:20.182Z,12.60
2019-02-28T10:41:20.172Z,14.00
2019-02-28T10:42:20.183Z,14.20
2019-02-28T10:43:20.155Z,12.60
2019-02-28T10:44:20.144Z,13.40
2019-02-28T10:45:20.133Z,17.20
2019-02-28T10:46:20.344Z,11.70
2019-02-28T10:47:20.124Z,10.80
2019-02-28T10:48:20.098Z,13.20
2019-02-28T10:49:21.143Z,12.40
2019-02-28T10:50:20.077Z,12.20
2019-02-28T10:51:20.073Z,12.90
2019-02-28T10:52:20.079Z,14.20
2019-02-28T10:53:20.048Z,10.70
2019-02-28T10:54:20.036Z,13.20
2019-02-28T10:55:22.577Z,13.00
2019-02-28T10:56:20.015Z,10.80
2019-02-28T10:57:20.019Z,13.10
2019-02-28T10:58:20.002Z,13.10
2019-02-28T10:59:21.382Z,12.00
2019-02-28T11:00:20.225Z,13.10
2019-02-28T11:01:19.964Z,13.60
2019-02-28T11:02:20.040Z,15.10
2019-02-28T11:03:19.938Z,16.20
2019-02-28T11:04:19.932Z,14.90
2019-02-28T11:05:19.923Z,12.00
2019-02-28T11:06:19.906Z,10.50
2019-02-28T11:07:19.914Z,12.90
2019-02-28T11:08:19.885Z,12.00
2019-02-28T11:09:21.822Z,12.00
2019-02-28T11:10:19.870Z,14.10
2019-02-28T11:11:19.862Z,14.90
2019-02-28T11:12:21.733Z,14.90
2019-02-28T11:13:19.841Z,9.90
2019-02-28T11:14:19.835Z,11.60
2019-02-28T11:15:19.813Z,15.20
2019-02-28T11:16:20.436Z,13.30
2019-02-28T11:17:19.814Z,13.80
2019-02-28T11:18:19.781Z,15.30
2019-02-28T11:19:19.777Z,15.90
2019-02-28T11:20:22.386Z,9.60
2019-02-28T11:21:19.749Z,13.00
2019-02-28T11:22:19.733Z,9.70
2019-02-28T11:23:19.750Z,14.00
2019-02-28T11:24:20.585Z,13.90
2019-02-28T11:25:19.708Z,11.30
2019-02-28T11:26:19.692Z,12.00
2019-02-28T11:27:22.875Z,13.80
2019-02-28T11:28:19.693Z,14.00
2019-02-28T11:29:19.660Z,9.20
2019-02-28T11:30:19.651Z,12.20
2019-02-28T11:31:20.077Z,10.40
2019-02-28T11:32:19.629Z,13.60
2019-02-28T11:33:19.638Z,9.10
2019-02-28T11:34:19.601Z,10.70
2019-02-28T11:35:20.057Z,11.60
2019-02-28T11:36:19.585Z,11.50
2019-02-28T11:37:19.578Z,13.20
2019-02-28T11:38:21.573Z,12.70
2019-02-28T11:39:19.558Z,13.70
2019-02-28T11:40:19.542Z,12.30
2019-02-28T11:41:19.641Z,11.50
2019-02-28T11:42:19.528Z,11.10
2019-02-28T11:43:19.522Z,12.80
2019-02-28T11:44:19.497Z,15.70
2019-02-28T11:45:22.017Z,18.00
2019-02-28T11:46:19.477Z,13.80
2019-02-28T11:47:19.466Z,11.80
2019-02-28T11:48:20.488Z,13.70
2019-02-28T11:49:19.453Z,15.80
2019-02-28T11:50:19.435Z,12.20
2019-02-28T11:51:19.425Z,11.50
2019-02-28T11:52:19.409Z,12.80
2019-02-28T11:53:19.442Z,12.90
2019-02-28T11:54:19.395Z,15.60
2019-02-28T11:55:20.365Z,9.90
2019-02-28T11:56:19.367Z,12.80
2019-02-28T11:57:20.684Z,14.90
2019-02-28T11:58:19.358Z,14.70
2019-02-28T11:59:19.354Z,12.60
2019-02-28T12:00:19.327Z,12.20
2019-02-28T12:01:19.329Z,10.70
2019-02-28T12:02:20.590Z,9.60
2019-02-28T12:03:19.292Z,15.30
2019-02-28T12:04:19.322Z,10.20
2019-02-28T12:05:19.287Z,14.90
2019-02-28T12:06:19.270Z,11.10
2019-02-28T12:07:19.259Z,8.70
2019-02-28T12:08:19.245Z,14.00
2019-02-28T12:09:20.046Z,11.90
2019-02-28T12:10:19.221Z,18.00
2019-02-28T12:11:19.215Z,11.10
2019-02-28T12:12:19.203Z,15.70
2019-02-28T12:13:19.660Z,13.00
2019-02-28T12:14:19.201Z,10.40
2019-02-28T12:15:19.167Z,9.00
2019-02-28T12:16:20.249Z,10.90
2019-02-28T12:17:19.161Z,11.30
2019-02-28T12:18:19.141Z,13.80
2019-02-28T12:19:19.143Z,17.90
2019-02-28T12:20:19.123Z,11.40
2019-02-28T12:21:19.109Z,13.20
2019-02-28T12:22:19.104Z,11.70
2019-02-28T12:23:23.144Z,11.50
2019-02-28T12:24:19.100Z,14.20
2019-02-28T12:25:19.072Z,11.10
2019-02-28T12:26:21.024Z,12.90
2019-02-28T12:27:19.054Z,11.20
2019-02-28T12:28:19.027Z,8.50
2019-02-28T12:29:19.050Z,15.00
2019-02-28T12:30:22.030Z,11.50
2019-02-28T12:31:19.998Z,11.30
2019-02-28T12:32:18.987Z,15.00
2019-02-28T12:33:23.002Z,14.20
2019-02-28T12:34:18.999Z,15.80
2019-02-28T12:35:18.960Z,12.20
2019-02-28T12:36:18.948Z,7.40
2019-02-28T12:37:22.089Z,11.00
2019-02-28T12:38:18.940Z,15.00
2019-02-28T12:39:18.920Z,11.60
2019-02-28T12:40:18.920Z,9.00
2019-02-28T12:41:21.595Z,12.60
2019-02-28T12:42:19.885Z,10.70
2019-02-28T12:43:18.884Z,9.80
2019-02-28T12:44:18.866Z,10.40
2019-02-28T12:45:21.216Z,13.00
2019-02-28T12:46:19.839Z,10.40
2019-02-28T12:47:18.839Z,9.80
2019-02-28T12:48:18.825Z,12.50
2019-02-28T12:49:21.812Z,10.30
2019-02-28T12:50:18.823Z,11.90
2019-02-28T12:51:18.794Z,13.70
2019-02-28T12:52:18.782Z,12.40
2019-02-28T12:53:23.988Z,13.70
2019-02-28T12:54:19.757Z,12.10
2019-02-28T12:55:20.005Z,10.00
2019-02-28T12:56:19.495Z,11.20
2019-02-28T12:57:22.354Z,9.80
2019-02-28T12:58:18.731Z,12.90
2019-02-28T12:59:19.498Z,11.80
2019-02-28T13:00:19.845Z,9.90
2019-02-28T13:01:18.686Z,10.40
2019-02-28T13:02:18.677Z,13.70
2019-02-28T13:03:20.175Z,11.50